Time;durP1;ratioP1;P1;durP2;ratioP2;P2;SDS_P1;SDS_P2;PMS_P1;PMS_P2;Temp;Humidity;BMP_temperature;BMP_pressure;BME280_temperature;BME280_humidity;BME280_pressure;Samples;Min_cycle;Max_cycle;Signal;HPM_P1;HPM_P2
2022/10/09 00:01:50;;;;;;;;;;;;;;;;;;5000339;28;19921;-33
2022/10/09 00:04:15;;;;;;;;;;;;;;;;;;5003242;28;19941;-33
2022/10/09 00:06:41;;;;;;;;;;;;;;;;;;5001189;28;19924;-33
2022/10/09 00:09:06;;;;;;;;;;;;;;;;;;5003500;28;19972;-33
2022/10/09 00:11:31;;;;;;;;;;;;;;;;;;5002520;28;19922;-33
2022/10/09 00:13:56;;;;;;;;;;;;;;;;;;5002356;28;20012;-33
2022/10/09 00:16:22;;;;;;;;;;;;;;;;;;5002508;28;20445;-34
2022/10/09 00:18:47;;;;;;;;;;;;;;;;;;5002625;28;19956;-33
2022/10/09 00:21:12;;;;;;;;;;;;;;;;;;5005156;28;19914;-33
2022/10/09 00:23:37;;;;;;;;;;;;;;;;;;5002550;28;19926;-33
2022/10/09 00:26:02;;;;;;;;;;;;;;;;;;5005993;28;19917;-34
2022/10/09 00:28:27;;;;;;;;;;;;;;;;;;5004346;28;19913;-33
2022/10/09 00:30:52;;;;;;;;;;;;;;;;;;5003970;28;19913;-33
2022/10/09 00:33:18;;;;;;;;;;;;;;;;;;5002364;28;19913;-34
2022/10/09 00:35:43;;;;;;;;;;;;;;;;;;5004270;28;19918;-33
2022/10/09 00:38:08;;;;;;;;;;;;;;;;;;5002041;28;20427;-33
2022/10/09 00:40:33;;;;;;;;;;;;;;;;;;5002593;28;20272;-33
2022/10/09 00:42:58;;;;;;;;;;;;;;;;;;5003340;28;19917;-33
2022/10/09 00:45:23;;;;;;;;;;;;;;;;;;5000933;28;20220;-34
2022/10/09 00:47:49;;;;;;;;;;;;;;;;;;4999753;28;19917;-33
2022/10/09 00:50:14;;;;;;;;;;;;;;;;;;5006155;28;19913;-33
2022/10/09 00:52:39;;;;;;;;;;;;;;;;;;5001166;28;20004;-33
2022/10/09 00:55:05;;;;;;;;;;;;;;;;;;5003793;28;19956;-33
2022/10/09 00:57:30;;;;;;;;;;;;;;;;;;5002665;28;19935;-33
2022/10/09 00:59:55;;;;;;;;;;;;;;;;;;4998681;28;19917;-33
2022/10/09 01:02:20;;;;;;;;;;;;;;;;;;4999271;28;20446;-34
2022/10/09 01:04:45;;;;;;;;;;;;;;;;;;4998799;28;19917;-33
2022/10/09 01:07:10;;;;;;;;;;;;;;;;;;5006928;28;19922;-33
2022/10/09 01:09:35;;;;;;;;;;;;;;;;;;5001499;28;19920;-33
2022/10/09 01:12:01;;;;;;;;;;;;;;;;;;5004158;28;20639;-33
2022/10/09 01:14:26;;;;;;;;;;;;;;;;;;5000321;28;19920;-34
2022/10/09 01:16:51;;;;;;;;;;;;;;;;;;5003260;28;19921;-33
2022/10/09 01:19:16;;;;;;;;;;;;;;;;;;5001723;28;19919;-33
2022/10/09 01:21:41;;;;;;;;;;;;;;;;;;5002235;28;20315;-33
2022/10/09 01:24:07;;;;;;;;;;;;;;;;;;5003601;28;19948;-33
2022/10/09 01:26:32;;;;;;;;;;;;;;;;;;5003843;28;20008;-33
2022/10/09 01:28:57;;;;;;;;;;;;;;;;;;5003051;28;20016;-33
2022/10/09 01:31:22;;;;;;;;;;;;;;;;;;5001978;28;19949;-33
2022/10/09 01:33:47;;;;;;;;;;;;;;;;;;5001356;28;20288;-33
2022/10/09 01:36:12;;;;;;;;;;;;;;;;;;5001837;28;19925;-33
2022/10/09 01:38:37;;;;;;;;;;;;;;;;;;4999842;28;19921;-33
2022/10/09 01:41:03;;;;;;;;;;;;;;;;;;5002995;28;19927;-33
2022/10/09 01:43:28;;;;;;;;;;;;;;;;;;5003516;28;20172;-33
2022/10/09 01:45:53;;;;;;;;;;;;;;;;;;5002097;28;20330;-33
2022/10/09 01:48:18;;;;;;;;;;;;;;;;;;5002220;28;19918;-33
2022/10/09 01:50:44;;;;;;;;;;;;;;;;;;5000072;28;19920;-33
2022/10/09 01:53:09;;;;;;;;;;;;;;;;;;5000097;28;19914;-33
2022/10/09 01:55:34;;;;;;;;;;;;;;;;;;5002028;28;19925;-33
2022/10/09 01:57:59;;;;;;;;;;;;;;;;;;5000110;28;19920;-33
2022/10/09 02:00:24;;;;;;;;;;;;;;;;;;4995347;28;19940;-33
2022/10/09 02:02:49;;;;;;;;;;;;;;;;;;5001855;28;19924;-33
2022/10/09 02:05:15;;;;;;;;;;;;;;;;;;5000296;28;20387;-33
2022/10/09 02:07:40;;;;;;;;;;;;;;;;;;5001874;28;20418;-33
2022/10/09 02:10:05;;;;;;;;;;;;;;;;;;4999000;28;19977;-33
2022/10/09 02:12:30;;;;;;;;;;;;;;;;;;5002277;28;20370;-33
2022/10/09 02:14:55;;;;;;;;;;;;;;;;;;5000020;28;20042;-33
2022/10/09 02:17:20;;;;;;;;;;;;;;;;;;5002717;28;19971;-34
2022/10/09 02:19:46;;;;;;;;;;;;;;;;;;5002041;28;19940;-34
2022/10/09 02:22:11;;;;;;;;;;;;;;;;;;4999865;28;20008;-33
2022/10/09 02:24:36;;;;;;;;;;;;;;;;;;5000513;28;20283;-33
2022/10/09 02:27:01;;;;;;;;;;;;;;;;;;5002621;28;20019;-33
2022/10/09 02:29:26;;;;;;;;;;;;;;;;;;4998938;28;19921;-33
2022/10/09 02:31:52;;;;;;;;;;;;;;;;;;4999863;28;19971;-33
2022/10/09 02:34:18;;;;;;;;;;;;;;;;;;5002924;28;19909;-33
2022/10/09 02:36:43;;;;;;;;;;;;;;;;;;4999601;28;19924;-33
2022/10/09 02:39:08;;;;;;;;;;;;;;;;;;4999730;28;19947;-33
2022/10/09 02:41:33;;;;;;;;;;;;;;;;;;5000966;28;19914;-33
2022/10/09 02:43:58;;;;;;;;;;;;;;;;;;4998070;28;19956;-33
2022/10/09 02:46:24;;;;;;;;;;;;;;;;;;4999420;28;20416;-33
2022/10/09 02:48:49;;;;;;;;;;;;;;;;;;5003220;28;19914;-34
2022/10/09 02:51:14;;;;;;;;;;;;;;;;;;4998794;28;19913;-33
2022/10/09 02:53:39;;;;;;;;;;;;;;;;;;5001957;28;20576;-33
2022/10/09 02:56:04;;;;;;;;;;;;;;;;;;4999588;28;19926;-33
2022/10/09 02:58:30;;;;;;;;;;;;;;;;;;5003115;28;19956;-33
2022/10/09 03:00:55;;;;;;;;;;;;;;;;;;4999680;28;20399;-33
2022/10/09 03:03:20;;;;;;;;;;;;;;;;;;5002990;28;19988;-33
2022/10/09 03:05:45;;;;;;;;;;;;;;;;;;4997641;28;19936;-33
2022/10/09 03:08:10;;;;;;;;;;;;;;;;;;5001118;28;19918;-33
2022/10/09 03:10:36;;;;;;;;;;;;;;;;;;5001963;28;20386;-33
2022/10/09 03:13:01;;;;;;;;;;;;;;;;;;5004824;28;19921;-34
2022/10/09 03:15:26;;;;;;;;;;;;;;;;;;5003392;28;19917;-33
2022/10/09 03:17:51;;;;;;;;;;;;;;;;;;5004352;28;19917;-33
2022/10/09 03:20:17;;;;;;;;;;;;;;;;;;5006727;28;19920;-33
2022/10/09 03:22:42;;;;;;;;;;;;;;;;;;5003334;28;20286;-33
2022/10/09 03:25:07;;;;;;;;;;;;;;;;;;5002116;28;19917;-33
2022/10/09 03:27:32;;;;;;;;;;;;;;;;;;5003363;28;20333;-33
2022/10/09 03:29:57;;;;;;;;;;;;;;;;;;5002339;28;19914;-33
2022/10/09 03:32:22;;;;;;;;;;;;;;;;;;5002739;28;20139;-33
2022/10/09 03:34:48;;;;;;;;;;;;;;;;;;5005380;28;19925;-33
2022/10/09 03:37:13;;;;;;;;;;;;;;;;;;5005508;28;20101;-33
2022/10/09 03:39:38;;;;;;;;;;;;;;;;;;5005086;28;20342;-33
2022/10/09 03:42:03;;;;;;;;;;;;;;;;;;5002978;28;19918;-33
2022/10/09 03:44:28;;;;;;;;;;;;;;;;;;5002914;28;19921;-33
2022/10/09 03:46:53;;;;;;;;;;;;;;;;;;5001614;28;19914;-33
2022/10/09 03:49:19;;;;;;;;;;;;;;;;;;5005176;28;20012;-33
2022/10/09 03:51:44;;;;;;;;;;;;;;;;;;5002813;28;19913;-33
2022/10/09 03:54:09;;;;;;;;;;;;;;;;;;5006030;28;19967;-33
2022/10/09 03:56:34;;;;;;;;;;;;;;;;;;5004279;28;19917;-33
2022/10/09 03:58:59;;;;;;;;;;;;;;;;;;5003789;28;19917;-33
2022/10/09 04:01:25;;;;;;;;;;;;;;;;;;5003695;28;19967;-33
2022/10/09 04:03:50;;;;;;;;;;;;;;;;;;5005236;28;20248;-33
2022/10/09 04:06:15;;;;;;;;;;;;;;;;;;5001124;28;19913;-33
2022/10/09 04:08:40;;;;;;;;;;;;;;;;;;5002716;28;19921;-33
2022/10/09 04:11:05;;;;;;;;;;;;;;;;;;5003903;28;19921;-33
2022/10/09 04:13:30;;;;;;;;;;;;;;;;;;5003163;28;19914;-33
2022/10/09 04:15:55;;;;;;;;;;;;;;;;;;5002373;28;20447;-33
2022/10/09 04:18:21;;;;;;;;;;;;;;;;;;5005228;28;19914;-34
2022/10/09 04:20:46;;;;;;;;;;;;;;;;;;5001748;28;20597;-33
2022/10/09 04:23:11;;;;;;;;;;;;;;;;;;5002844;28;19917;-33
2022/10/09 04:25:36;;;;;;;;;;;;;;;;;;5003475;28;20367;-33
2022/10/09 04:28:01;;;;;;;;;;;;;;;;;;5001274;28;19921;-33
2022/10/09 04:30:27;;;;;;;;;;;;;;;;;;5005191;28;19919;-33
2022/10/09 04:32:52;;;;;;;;;;;;;;;;;;5001759;28;19924;-33
2022/10/09 04:35:17;;;;;;;;;;;;;;;;;;5004237;28;19925;-33
2022/10/09 04:37:42;;;;;;;;;;;;;;;;;;5000866;28;20370;-33
2022/10/09 04:40:07;;;;;;;;;;;;;;;;;;5005107;28;19972;-33
2022/10/09 04:42:32;;;;;;;;;;;;;;;;;;5002271;28;19914;-33
2022/10/09 04:44:58;;;;;;;;;;;;;;;;;;5004096;28;20346;-33
2022/10/09 04:47:23;;;;;;;;;;;;;;;;;;5002082;28;19913;-33
2022/10/09 04:49:48;;;;;;;;;;;;;;;;;;5001863;28;19921;-33
2022/10/09 04:52:13;;;;;;;;;;;;;;;;;;5002698;28;19956;-33
2022/10/09 04:54:38;;;;;;;;;;;;;;;;;;5004326;28;20509;-33
2022/10/09 04:57:03;;;;;;;;;;;;;;;;;;5000795;28;19925;-33
2022/10/09 04:59:29;;;;;;;;;;;;;;;;;;5002436;28;19967;-33
2022/10/09 05:01:54;;;;;;;;;;;;;;;;;;4999734;28;20354;-33
2022/10/09 05:04:19;;;;;;;;;;;;;;;;;;5004704;28;20277;-33
2022/10/09 05:06:44;;;;;;;;;;;;;;;;;;5002862;28;19914;-33
2022/10/09 05:09:09;;;;;;;;;;;;;;;;;;5001445;28;20360;-33
2022/10/09 05:11:34;;;;;;;;;;;;;;;;;;5004405;28;19914;-33
2022/10/09 05:14:00;;;;;;;;;;;;;;;;;;5003366;28;19964;-33
2022/10/09 05:16:25;;;;;;;;;;;;;;;;;;5004623;28;21208;-33
2022/10/09 05:18:50;;;;;;;;;;;;;;;;;;5001643;28;19945;-33
2022/10/09 05:21:16;;;;;;;;;;;;;;;;;;5000138;28;20343;-33
2022/10/09 05:23:41;;;;;;;;;;;;;;;;;;5003584;28;19929;-33
2022/10/09 05:26:06;;;;;;;;;;;;;;;;;;5001586;28;20211;-33
2022/10/09 05:28:33;;;;;;;;;;;;;;;;;;5003750;28;21333;-33
2022/10/09 05:30:58;;;;;;;;;;;;;;;;;;5002309;28;19919;-32
2022/10/09 05:33:23;;;;;;;;;;;;;;;;;;5002396;28;20334;-33
2022/10/09 05:35:48;;;;;;;;;;;;;;;;;;5001679;28;19932;-33
2022/10/09 05:38:14;;;;;;;;;;;;;;;;;;5003191;28;20434;-33
2022/10/09 05:40:39;;;;;;;;;;;;;;;;;;5002170;28;19918;-32
2022/10/09 05:43:04;;;;;;;;;;;;;;;;;;5004181;28;20077;-32
2022/10/09 05:45:29;;;;;;;;;;;;;;;;;;5003162;28;20272;-32
2022/10/09 05:47:54;;;;;;;;;;;;;;;;;;5003723;28;19914;-32
2022/10/09 05:50:19;;;;;;;;;;;;;;;;;;5001339;28;20375;-32
2022/10/09 05:52:44;;;;;;;;;;;;;;;;;;5001444;28;19951;-32
2022/10/09 05:55:10;;;;;;;;;;;;;;;;;;5002566;28;19913;-32
2022/10/09 05:57:35;;;;;;;;;;;;;;;;;;5000565;28;19920;-32
2022/10/09 06:00:00;;;;;;;;;;;;;;;;;;5000806;28;19971;-32
2022/10/09 06:02:25;;;;;;;;;;;;;;;;;;5001975;28;19960;-32
2022/10/09 06:04:50;;;;;;;;;;;;;;;;;;5002556;28;19968;-32
2022/10/09 06:07:16;;;;;;;;;;;;;;;;;;5000782;28;20295;-32
2022/10/09 06:09:41;;;;;;;;;;;;;;;;;;5001623;28;19979;-31
2022/10/09 06:12:06;;;;;;;;;;;;;;;;;;4998081;28;19913;-32
2022/10/09 06:14:31;;;;;;;;;;;;;;;;;;5001947;28;19918;-32
2022/10/09 06:16:56;;;;;;;;;;;;;;;;;;5003946;28;20275;-32
2022/10/09 06:19:22;;;;;;;;;;;;;;;;;;5000102;28;19925;-32
2022/10/09 06:21:47;;;;;;;;;;;;;;;;;;5002102;28;20009;-32
2022/10/09 06:24:13;;;;;;;;;;;;;;;;;;4999435;28;20012;-32
2022/10/09 06:26:38;;;;;;;;;;;;;;;;;;5001088;28;19976;-32
2022/10/09 06:29:03;;;;;;;;;;;;;;;;;;5001079;28;19917;-32
2022/10/09 06:31:28;;;;;;;;;;;;;;;;;;4998998;28;20342;-32
2022/10/09 06:33:53;;;;;;;;;;;;;;;;;;5000897;28;19972;-32
2022/10/09 06:36:19;;;;;;;;;;;;;;;;;;4999822;28;19953;-32
2022/10/09 06:38:44;;;;;;;;;;;;;;;;;;5000822;28;19925;-32
2022/10/09 06:41:09;;;;;;;;;;;;;;;;;;5001531;28;20534;-32
2022/10/09 06:43:34;;;;;;;;;;;;;;;;;;5002267;28;19914;-32
2022/10/09 06:45:59;;;;;;;;;;;;;;;;;;4998233;28;19971;-32
2022/10/09 06:48:24;;;;;;;;;;;;;;;;;;5001995;28;20239;-32
2022/10/09 06:50:49;;;;;;;;;;;;;;;;;;5004922;28;19917;-32
2022/10/09 06:53:15;;;;;;;;;;;;;;;;;;5005652;28;19929;-32
2022/10/09 06:55:40;;;;;;;;;;;;;;;;;;5003282;28;19914;-32
2022/10/09 06:58:05;;;;;;;;;;;;;;;;;;5006183;28;19913;-32
2022/10/09 07:00:30;;;;;;;;;;;;;;;;;;5002936;28;20320;-32
2022/10/09 07:02:55;;;;;;;;;;;;;;;;;;5002478;28;19917;-32
2022/10/09 07:05:21;;;;;;;;;;;;;;;;;;5000652;28;19909;-32
2022/10/09 07:07:46;;;;;;;;;;;;;;;;;;4997353;28;19917;-32
2022/10/09 07:10:11;;;;;;;;;;;;;;;;;;5003128;28;19917;-32
2022/10/09 07:12:36;;;;;;;;;;;;;;;;;;5001573;28;20304;-32
2022/10/09 07:15:01;;;;;;;;;;;;;;;;;;5000828;28;19917;-32
2022/10/09 07:17:27;;;;;;;;;;;;;;;;;;5002563;28;19917;-32
2022/10/09 07:19:52;;;;;;;;;;;;;;;;;;4997986;28;19964;-32
2022/10/09 07:22:17;;;;;;;;;;;;;;;;;;5003998;28;20291;-32
2022/10/09 07:24:42;;;;;;;;;;;;;;;;;;5001166;28;19922;-32
2022/10/09 07:27:07;;;;;;;;;;;;;;;;;;5007607;28;19913;-32
2022/10/09 07:29:32;;;;;;;;;;;;;;;;;;5002478;28;20301;-32
2022/10/09 07:31:58;;;;;;;;;;;;;;;;;;5004079;28;19913;-32
2022/10/09 07:34:23;;;;;;;;;;;;;;;;;;4997440;28;20000;-32
2022/10/09 07:36:48;;;;;;;;;;;;;;;;;;5005537;28;20210;-32
2022/10/09 07:39:13;;;;;;;;;;;;;;;;;;4997429;28;19913;-32
2022/10/09 07:41:38;;;;;;;;;;;;;;;;;;5002982;28;19914;-32
2022/10/09 07:44:03;;;;;;;;;;;;;;;;;;4997196;28;19914;-32
2022/10/09 07:46:29;;;;;;;;;;;;;;;;;;5004193;28;19949;-32
2022/10/09 07:48:54;;;;;;;;;;;;;;;;;;5002145;28;20055;-32
2022/10/09 07:51:19;;;;;;;;;;;;;;;;;;5001110;28;19960;-32
2022/10/09 07:53:44;;;;;;;;;;;;;;;;;;5002718;28;19949;-32
2022/10/09 07:56:09;;;;;;;;;;;;;;;;;;5001440;28;19918;-32
2022/10/09 07:58:34;;;;;;;;;;;;;;;;;;5000013;28;19909;-32
2022/10/09 08:01:00;;;;;;;;;;;;;;;;;;4998835;28;19940;-32
2022/10/09 08:03:25;;;;;;;;;;;;;;;;;;5001908;28;20352;-32
2022/10/09 08:05:50;;;;;;;;;;;;;;;;;;5000909;28;20403;-32
2022/10/09 08:08:15;;;;;;;;;;;;;;;;;;4998419;28;19925;-32
2022/10/09 08:10:40;;;;;;;;;;;;;;;;;;4997900;28;20171;-32
2022/10/09 08:13:05;;;;;;;;;;;;;;;;;;5000533;28;20425;-32
2022/10/09 08:15:31;;;;;;;;;;;;;;;;;;4995091;28;19918;-32
2022/10/09 08:17:56;;;;;;;;;;;;;;;;;;5003266;28;19917;-32
2022/10/09 08:20:21;;;;;;;;;;;;;;;;;;5002936;28;19921;-32
2022/10/09 08:22:46;;;;;;;;;;;;;;;;;;5002769;28;20092;-32
2022/10/09 08:25:11;;;;;;;;;;;;;;;;;;4998919;28;19976;-32
2022/10/09 08:27:36;;;;;;;;;;;;;;;;;;5004147;28;19922;-32
2022/10/09 08:30:01;;;;;;;;;;;;;;;;;;5003560;28;20347;-32
2022/10/09 08:32:27;;;;;;;;;;;;;;;;;;5002306;28;19916;-32
2022/10/09 08:34:52;;;;;;;;;;;;;;;;;;5001105;28;19929;-32
2022/10/09 08:37:17;;;;;;;;;;;;;;;;;;4998395;28;19968;-33
2022/10/09 08:39:42;;;;;;;;;;;;;;;;;;4997994;28;20350;-32
2022/10/09 08:42:07;;;;;;;;;;;;;;;;;;5000798;28;19923;-32
2022/10/09 08:44:33;;;;;;;;;;;;;;;;;;4996642;28;19921;-32
2022/10/09 08:46:58;;;;;;;;;;;;;;;;;;4996110;28;19924;-32
2022/10/09 08:49:24;;;;;;;;;;;;;;;;;;5003070;28;20268;-33
2022/10/09 08:51:50;;;;;;;;;;;;;;;;;;4997536;28;19918;-32
2022/10/09 08:54:15;;;;;;;;;;;;;;;;;;5001378;28;19968;-32
2022/10/09 08:56:40;;;;;;;;;;;;;;;;;;4999838;28;19917;-32
2022/10/09 08:59:05;;;;;;;;;;;;;;;;;;4996032;28;19964;-32
2022/10/09 09:01:30;;;;;;;;;;;;;;;;;;4997910;28;19914;-33
2022/10/09 09:03:55;;;;;;;;;;;;;;;;;;4999776;28;20471;-33
2022/10/09 09:06:21;;;;;;;;;;;;;;;;;;5001871;28;19971;-33
2022/10/09 09:08:46;;;;;;;;;;;;;;;;;;4997873;28;19917;-33
2022/10/09 09:11:12;;;;;;;;;;;;;;;;;;4999446;28;19921;-33
2022/10/09 09:13:37;;;;;;;;;;;;;;;;;;4999147;28;19960;-33
2022/10/09 09:16:03;;;;;;;;;;;;;;;;;;4999224;28;20307;-33
2022/10/09 09:18:28;;;;;;;;;;;;;;;;;;5000960;28;19918;-33
2022/10/09 09:20:53;;;;;;;;;;;;;;;;;;4995788;28;19917;-33
2022/10/09 09:23:18;;;;;;;;;;;;;;;;;;5000838;28;20023;-33
2022/10/09 09:25:44;;;;;;;;;;;;;;;;;;5004247;28;19914;-33
2022/10/09 09:28:10;;;;;;;;;;;;;;;;;;4998440;28;20030;-33
2022/10/09 09:30:35;;;;;;;;;;;;;;;;;;4992948;28;19918;-33
2022/10/09 09:33:00;;;;;;;;;;;;;;;;;;4999715;28;20577;-33
2022/10/09 09:35:25;;;;;;;;;;;;;;;;;;5001976;28;19921;-33
2022/10/09 09:37:50;;;;;;;;;;;;;;;;;;4993658;28;20397;-33
2022/10/09 09:40:15;;;;;;;;;;;;;;;;;;4998390;28;20288;-33
2022/10/09 09:42:41;;;;;;;;;;;;;;;;;;4996751;28;19914;-33
2022/10/09 09:45:06;;;;;;;;;;;;;;;;;;4999082;28;21388;-33
2022/10/09 09:47:31;;;;;;;;;;;;;;;;;;4994448;28;20372;-33
2022/10/09 09:49:56;;;;;;;;;;;;;;;;;;4997288;28;19932;-33
2022/10/09 09:52:21;;;;;;;;;;;;;;;;;;4997467;28;19924;-33
2022/10/09 09:54:46;;;;;;;;;;;;;;;;;;4998140;28;19979;-33
2022/10/09 09:57:11;;;;;;;;;;;;;;;;;;4997942;28;19932;-33
2022/10/09 09:59:37;;;;;;;;;;;;;;;;;;5000498;28;20528;-33
2022/10/09 10:02:02;;;;;;;;;;;;;;;;;;4995497;28;19929;-33
2022/10/09 10:04:27;;;;;;;;;;;;;;;;;;4996327;28;20040;-33
2022/10/09 10:06:52;;;;;;;;;;;;;;;;;;4998772;28;19928;-33
2022/10/09 10:09:17;;;;;;;;;;;;;;;;;;4996303;28;19924;-33
2022/10/09 10:11:42;;;;;;;;;;;;;;;;;;4999281;28;20387;-33
2022/10/09 10:14:08;;;;;;;;;;;;;;;;;;4996176;28;19922;-33
2022/10/09 10:16:33;;;;;;;;;;;;;;;;;;5001121;28;20360;-33
2022/10/09 10:18:58;;;;;;;;;;;;;;;;;;4995045;28;20333;-33
2022/10/09 10:21:23;;;;;;;;;;;;;;;;;;5001165;28;20247;-33
2022/10/09 10:23:48;;;;;;;;;;;;;;;;;;4993994;28;20391;-33
2022/10/09 10:26:14;;;;;;;;;;;;;;;;;;5000725;28;19917;-33
2022/10/09 10:28:39;;;;;;;;;;;;;;;;;;4996524;28;19924;-33
2022/10/09 10:31:04;;;;;;;;;;;;;;;;;;5000037;28;19968;-33
2022/10/09 10:33:29;;;;;;;;;;;;;;;;;;4997192;28;19917;-33
2022/10/09 10:35:54;;;;;;;;;;;;;;;;;;4998280;28;20302;-33
2022/10/09 10:38:19;;;;;;;;;;;;;;;;;;4997550;28;20381;-33
2022/10/09 10:40:44;;;;;;;;;;;;;;;;;;4998545;28;19921;-33
2022/10/09 10:43:10;;;;;;;;;;;;;;;;;;4996785;28;19918;-33
2022/10/09 10:45:35;;;;;;;;;;;;;;;;;;4996833;28;19996;-33
2022/10/09 10:48:00;;;;;;;;;;;;;;;;;;4999399;28;20297;-33
2022/10/09 10:50:25;;;;;;;;;;;;;;;;;;4992944;28;20378;-33
2022/10/09 10:52:50;;;;;;;;;;;;;;;;;;4999311;28;19917;-33
2022/10/09 10:55:15;;;;;;;;;;;;;;;;;;4998444;28;20445;-33
2022/10/09 10:57:41;;;;;;;;;;;;;;;;;;4998624;28;19917;-33
2022/10/09 11:00:06;;;;;;;;;;;;;;;;;;4994994;28;20350;-33
2022/10/09 11:02:31;;;;;;;;;;;;;;;;;;4997544;28;19921;-33
2022/10/09 11:04:56;;;;;;;;;;;;;;;;;;4995209;28;19914;-33
2022/10/09 11:07:21;;;;;;;;;;;;;;;;;;5000541;28;20144;-33
2022/10/09 11:09:47;;;;;;;;;;;;;;;;;;4995524;28;19914;-33
2022/10/09 11:12:12;;;;;;;;;;;;;;;;;;4999119;28;20322;-33
2022/10/09 11:14:37;;;;;;;;;;;;;;;;;;4995930;28;19953;-33
2022/10/09 11:17:02;;;;;;;;;;;;;;;;;;4999579;28;19932;-33
2022/10/09 11:19:27;;;;;;;;;;;;;;;;;;4998122;28;20364;-33
2022/10/09 11:21:53;;;;;;;;;;;;;;;;;;4995669;28;19921;-33
2022/10/09 11:24:18;;;;;;;;;;;;;;;;;;4991967;28;19988;-33
2022/10/09 11:26:43;;;;;;;;;;;;;;;;;;4998244;28;19917;-33
2022/10/09 11:29:09;;;;;;;;;;;;;;;;;;4997373;28;19926;-33
2022/10/09 11:31:34;;;;;;;;;;;;;;;;;;5000802;28;19917;-33
2022/10/09 11:33:59;;;;;;;;;;;;;;;;;;4998861;28;19924;-33
2022/10/09 11:36:24;;;;;;;;;;;;;;;;;;4999740;28;19976;-33
2022/10/09 11:38:49;;;;;;;;;;;;;;;;;;5000405;28;19924;-33
2022/10/09 11:41:14;;;;;;;;;;;;;;;;;;5031491;23;20385;-35
2022/10/09 11:43:40;;;;;;;;;;;;;;;;;;5021606;28;19917;-34
2022/10/09 11:46:05;;;;;;;;;;;;;;;;;;5022394;28;20226;-35
2022/10/09 11:48:30;;;;;;;;;;;;;;;;;;5021825;28;19917;-35
2022/10/09 11:50:55;;;;;;;;;;;;;;;;;;5019919;28;19956;-35
2022/10/09 11:53:20;;;;;;;;;;;;;;;;;;5020856;28;19917;-35
2022/10/09 11:55:47;;;;;;;;;;;;;;;;;;5021626;28;20068;-35
2022/10/09 11:58:17;;;;;;;;;;;;;;;;;;5020835;28;20260;-35
2022/10/09 12:00:42;;;;;;;;;;;;;;;;;;5016692;28;19913;-35
2022/10/09 12:03:07;;;;;;;;;;;;;;;;;;5020338;28;19921;-35
2022/10/09 12:05:32;;;;;;;;;;;;;;;;;;5020655;28;19980;-35
2022/10/09 12:07:57;;;;;;;;;;;;;;;;;;5022531;28;20380;-35
2022/10/09 12:10:23;;;;;;;;;;;;;;;;;;5018264;28;19921;-35
2022/10/09 12:12:48;;;;;;;;;;;;;;;;;;5020379;28;20363;-36
2022/10/09 12:15:13;;;;;;;;;;;;;;;;;;5020818;28;20143;-34
2022/10/09 12:17:38;;;;;;;;;;;;;;;;;;5021979;28;19921;-35
2022/10/09 12:20:03;;;;;;;;;;;;;;;;;;5019708;28;20617;-35
2022/10/09 12:22:28;;;;;;;;;;;;;;;;;;5021966;28;19964;-35
2022/10/09 12:24:53;;;;;;;;;;;;;;;;;;5020475;28;19924;-35
2022/10/09 12:27:19;;;;;;;;;;;;;;;;;;5021662;28;20313;-34
2022/10/09 12:29:44;;;;;;;;;;;;;;;;;;5021757;28;19951;-36
2022/10/09 12:32:09;;;;;;;;;;;;;;;;;;5018599;28;20286;-35
2022/10/09 12:34:34;;;;;;;;;;;;;;;;;;5021880;28;19967;-35
2022/10/09 12:36:59;;;;;;;;;;;;;;;;;;5017953;28;20390;-35
2022/10/09 12:39:24;;;;;;;;;;;;;;;;;;5020159;28;20291;-35
2022/10/09 12:41:50;;;;;;;;;;;;;;;;;;5020397;28;19929;-35
2022/10/09 12:44:16;;;;;;;;;;;;;;;;;;5019447;28;20276;-35
2022/10/09 12:46:41;;;;;;;;;;;;;;;;;;5018385;28;19917;-35
2022/10/09 12:49:07;;;;;;;;;;;;;;;;;;5020930;28;19946;-35
2022/10/09 12:51:32;;;;;;;;;;;;;;;;;;5020004;28;20011;-35
2022/10/09 12:53:58;;;;;;;;;;;;;;;;;;5016993;28;19927;-35
2022/10/09 12:56:23;;;;;;;;;;;;;;;;;;5020516;28;20365;-35
2022/10/09 12:58:48;;;;;;;;;;;;;;;;;;5018089;28;20367;-36
2022/10/09 13:01:13;;;;;;;;;;;;;;;;;;5019112;28;19921;-35
2022/10/09 13:03:38;;;;;;;;;;;;;;;;;;5017098;28;20000;-35
2022/10/09 13:06:03;;;;;;;;;;;;;;;;;;5019911;28;19971;-35
2022/10/09 13:08:29;;;;;;;;;;;;;;;;;;5019790;28;20313;-35
2022/10/09 13:10:54;;;;;;;;;;;;;;;;;;5015399;28;20008;-36
2022/10/09 13:13:19;;;;;;;;;;;;;;;;;;5018385;28;20369;-36
2022/10/09 13:15:44;;;;;;;;;;;;;;;;;;5021092;28;20157;-35
2022/10/09 13:18:09;;;;;;;;;;;;;;;;;;5019094;28;19917;-36
2022/10/09 13:20:34;;;;;;;;;;;;;;;;;;5016039;28;20179;-36
2022/10/09 13:23:00;;;;;;;;;;;;;;;;;;5020770;28;19917;-37
2022/10/09 13:25:25;;;;;;;;;;;;;;;;;;5020958;28;19925;-36
2022/10/09 13:27:50;;;;;;;;;;;;;;;;;;5019033;28;20298;-35
2022/10/09 13:30:15;;;;;;;;;;;;;;;;;;5022106;28;19917;-35
2022/10/09 13:32:40;;;;;;;;;;;;;;;;;;5022687;28;19917;-36
2022/10/09 13:35:05;;;;;;;;;;;;;;;;;;5021786;28;20297;-35
2022/10/09 13:37:31;;;;;;;;;;;;;;;;;;5021713;28;19925;-36
2022/10/09 13:39:56;;;;;;;;;;;;;;;;;;5020542;28;20387;-35
2022/10/09 13:42:21;;;;;;;;;;;;;;;;;;5014780;28;19917;-35
2022/10/09 13:44:46;;;;;;;;;;;;;;;;;;5020744;28;20344;-36
2022/10/09 13:47:11;;;;;;;;;;;;;;;;;;5021793;28;19924;-35
2022/10/09 13:49:36;;;;;;;;;;;;;;;;;;5019911;28;20028;-35
2022/10/09 13:52:02;;;;;;;;;;;;;;;;;;5019635;28;20337;-36
2022/10/09 13:54:27;;;;;;;;;;;;;;;;;;5020319;28;19917;-35
2022/10/09 13:56:52;;;;;;;;;;;;;;;;;;5022823;28;20353;-36
2022/10/09 13:59:17;;;;;;;;;;;;;;;;;;5018951;28;19951;-35
2022/10/09 14:01:42;;;;;;;;;;;;;;;;;;5021958;28;19923;-35
2022/10/09 14:04:08;;;;;;;;;;;;;;;;;;5017523;28;19986;-36
2022/10/09 14:06:33;;;;;;;;;;;;;;;;;;5022279;28;20385;-36
2022/10/09 14:08:58;;;;;;;;;;;;;;;;;;5019710;28;20003;-36
2022/10/09 14:11:23;;;;;;;;;;;;;;;;;;5020855;28;19913;-36
2022/10/09 14:13:49;;;;;;;;;;;;;;;;;;5017671;28;19924;-37
2022/10/09 14:16:14;;;;;;;;;;;;;;;;;;5018703;28;20263;-36
2022/10/09 14:18:39;;;;;;;;;;;;;;;;;;5022362;28;20378;-37
2022/10/09 14:21:05;;;;;;;;;;;;;;;;;;5019227;28;19917;-36
2022/10/09 14:23:30;;;;;;;;;;;;;;;;;;5018782;28;20105;-36
2022/10/09 14:25:57;;;;;;;;;;;;;;;;;;5020178;28;19917;-36
2022/10/09 14:28:22;;;;;;;;;;;;;;;;;;5018823;28;20434;-36
2022/10/09 14:30:47;;;;;;;;;;;;;;;;;;5021134;28;20032;-37
2022/10/09 14:33:12;;;;;;;;;;;;;;;;;;5017550;28;19921;-36
2022/10/09 14:35:38;;;;;;;;;;;;;;;;;;5019658;28;19944;-35
2022/10/09 14:38:03;;;;;;;;;;;;;;;;;;5020964;28;19921;-36
2022/10/09 14:40:28;;;;;;;;;;;;;;;;;;5018277;28;19944;-36
2022/10/09 14:42:53;;;;;;;;;;;;;;;;;;5016069;28;19917;-36
2022/10/09 14:45:19;;;;;;;;;;;;;;;;;;5016850;28;20259;-36
2022/10/09 14:47:44;;;;;;;;;;;;;;;;;;5016361;28;19917;-35
2022/10/09 14:50:09;;;;;;;;;;;;;;;;;;5018105;28;20355;-35
2022/10/09 14:52:34;;;;;;;;;;;;;;;;;;5021066;28;19920;-35
2022/10/09 14:55:00;;;;;;;;;;;;;;;;;;5017757;28;19917;-36
2022/10/09 14:57:25;;;;;;;;;;;;;;;;;;5016840;28;19926;-35
2022/10/09 14:59:50;;;;;;;;;;;;;;;;;;5017990;28;19916;-37
2022/10/09 15:02:15;;;;;;;;;;;;;;;;;;5018381;28;20257;-36
2022/10/09 15:04:40;;;;;;;;;;;;;;;;;;5014487;28;19917;-36
2022/10/09 15:07:05;;;;;;;;;;;;;;;;;;5019989;28;19928;-36
2022/10/09 15:09:30;;;;;;;;;;;;;;;;;;5020736;28;19918;-35
2022/10/09 15:11:56;;;;;;;;;;;;;;;;;;5021806;28;19924;-35
2022/10/09 15:14:21;;;;;;;;;;;;;;;;;;5020593;28;20342;-35
2022/10/09 15:16:46;;;;;;;;;;;;;;;;;;5021430;28;19921;-36
2022/10/09 15:19:11;;;;;;;;;;;;;;;;;;5020399;28;19920;-36
2022/10/09 15:21:36;;;;;;;;;;;;;;;;;;5022892;28;19973;-35
2022/10/09 15:24:01;;;;;;;;;;;;;;;;;;5021950;28;19917;-36
2022/10/09 15:26:27;;;;;;;;;;;;;;;;;;5021973;28;19936;-36
2022/10/09 15:28:52;;;;;;;;;;;;;;;;;;5021118;28;19921;-36
2022/10/09 15:31:17;;;;;;;;;;;;;;;;;;5019178;28;19940;-36
2022/10/09 15:33:42;;;;;;;;;;;;;;;;;;5021439;28;20308;-35
2022/10/09 15:36:07;;;;;;;;;;;;;;;;;;5023235;28;20020;-36
2022/10/09 15:38:32;;;;;;;;;;;;;;;;;;5019341;28;19928;-35
2022/10/09 15:40:58;;;;;;;;;;;;;;;;;;5019208;28;19944;-35
2022/10/09 15:43:23;;;;;;;;;;;;;;;;;;5019315;28;19921;-36
2022/10/09 15:45:48;;;;;;;;;;;;;;;;;;5021318;28;19914;-36
2022/10/09 15:48:13;;;;;;;;;;;;;;;;;;5019981;28;19921;-36
2022/10/09 15:50:38;;;;;;;;;;;;;;;;;;5021275;28;19924;-36
2022/10/09 15:53:09;;;;;;;;;;;;;;;;;;5022006;28;20008;-36
2022/10/09 15:55:34;;;;;;;;;;;;;;;;;;5015971;28;21383;-35
2022/10/09 15:58:00;;;;;;;;;;;;;;;;;;5021699;28;20404;-35
2022/10/09 16:00:25;;;;;;;;;;;;;;;;;;5019381;28;19917;-36
2022/10/09 16:02:50;;;;;;;;;;;;;;;;;;5020621;28;20156;-35
2022/10/09 16:05:15;;;;;;;;;;;;;;;;;;5017237;28;19917;-36
2022/10/09 16:07:40;;;;;;;;;;;;;;;;;;5019839;28;19960;-35
2022/10/09 16:10:05;;;;;;;;;;;;;;;;;;5019738;28;19921;-36
2022/10/09 16:12:31;;;;;;;;;;;;;;;;;;5021455;28;19952;-36
2022/10/09 16:14:56;;;;;;;;;;;;;;;;;;5019169;28;19917;-35
2022/10/09 16:17:21;;;;;;;;;;;;;;;;;;5019092;28;19955;-35
2022/10/09 16:19:46;;;;;;;;;;;;;;;;;;5017273;28;19925;-35
2022/10/09 16:22:11;;;;;;;;;;;;;;;;;;5021808;28;19917;-36
2022/10/09 16:24:37;;;;;;;;;;;;;;;;;;5020887;28;20382;-35
2022/10/09 16:27:02;;;;;;;;;;;;;;;;;;5019323;28;19925;-35
2022/10/09 16:29:27;;;;;;;;;;;;;;;;;;5020447;28;20379;-36
2022/10/09 16:31:52;;;;;;;;;;;;;;;;;;5019305;28;19963;-35